Dublin, Ireland
Current Conditions -  °F | °C
As of 5:00 AM on Tuesday 23 Dec 2014 (Local Time) from EIDW Reporting Station
Broken Clouds Broken Clouds  
Wind Chill: 50°   Ceiling: 3000
Heat Index: 50°   Visibility: 6mi
Dew Point: 46°   Wind: 21mph
Humidity: 87%   Direction: 230°SW
Pressure: 29.8"   Gusts: NA
Location:  53.33°N, 6.25°W
Report Text: EIDW 230500Z 23018KT 9999 FEW009 SCT016 BKN030 10/08 Q1009 TEMPO 4000 BKN007
Loading
Personal Weather Stations






























Interactive Weather Map New forecast layout! Learn more

10-Day Weather Forecast

Advertisements
Track Severe Weather on mobile